Time;durP1;ratioP1;P1;durP2;ratioP2;P2;SDS_P1;SDS_P2;PMS_P1;PMS_P2;Temp;Humidity;BMP_temperature;BMP_pressure;BME280_temperature;BME280_humidity;BME280_pressure;Samples;Min_cycle;Max_cycle;Signal;HPM_P1;HPM_P2
2024/03/14 00:02:19;;;;;;;65.70;38.40;;;;;;;6.09;90.39;99972.77;217032;1260;141093;-77
2024/03/14 00:07:24;;;;;;;61.60;36.80;;;;;;;6.06;90.13;99971.70;217349;1259;139654;-74
2024/03/14 00:12:30;;;;;;;62.10;38.80;;;;;;;6.05;90.50;99966.77;217123;1260;139966;-75
2024/03/14 00:17:47;;;;;;;59.10;35.10;;;;;;;6.00;90.38;99960.92;217049;1259;140768;-73
2024/03/14 00:22:51;;;;;;;68.70;41.70;;;;;;;6.00;90.72;99963.56;217399;1261;140051;-74
2024/03/14 00:27:54;;;;;;;67.80;42.60;;;;;;;6.02;90.20;99962.48;217753;1262;140852;-72
2024/03/14 00:32:59;;;;;;;70.30;39.20;;;;;;;6.04;90.78;99963.58;217385;1262;140437;-74
2024/03/14 00:38:06;;;;;;;66.70;39.00;;;;;;;6.04;90.99;99958.05;217301;1259;140279;-73
2024/03/14 00:43:14;;;;;;;61.40;35.70;;;;;;;6.04;90.84;99955.65;217417;1259;140209;-74
2024/03/14 00:48:18;;;;;;;59.80;35.10;;;;;;;6.00;90.42;99951.11;217262;1263;140629;-73
2024/03/14 00:53:25;;;;;;;65.90;36.30;;;;;;;5.95;90.03;99949.22;217388;1262;140579;-73
2024/03/14 00:58:29;;;;;;;59.70;37.50;;;;;;;5.91;90.36;99947.58;217174;1259;141459;-73
2024/03/14 01:03:33;;;;;;;72.00;39.50;;;;;;;5.86;90.30;99947.40;217774;1259;140254;-73
2024/03/14 01:08:40;;;;;;;50.70;31.00;;;;;;;5.74;89.56;99943.42;217248;1263;140837;-75
2024/03/14 01:13:44;;;;;;;;;;;;;;;5.58;89.59;99942.64;217571;1259;140021;-76
2024/03/14 01:18:50;;;;;;;60.00;34.00;;;;;;;5.49;89.87;99939.18;217789;1262;125953;-74
2024/03/14 01:23:57;;;;;;;62.30;34.90;;;;;;;5.43;90.38;99932.89;217373;1262;162001;-72
2024/03/14 01:29:03;;;;;;;66.70;40.40;;;;;;;5.38;90.00;99930.66;217491;1260;140976;-74
2024/03/14 01:34:08;;;;;;;59.60;34.40;;;;;;;5.30;89.83;99927.41;217347;1261;140167;-74
2024/03/14 01:39:14;;;;;;;55.30;34.30;;;;;;;5.22;89.81;99927.13;217253;1262;139846;-73
2024/03/14 01:44:20;;;;;;;51.00;30.80;;;;;;;5.12;89.23;99923.30;217388;1259;141184;-74
2024/03/14 01:49:25;;;;;;;46.70;29.80;;;;;;;4.98;88.94;99917.73;217521;1260;140704;-76
2024/03/14 01:54:30;;;;;;;52.50;33.90;;;;;;;4.85;88.99;99917.73;217354;1259;140579;-76
2024/03/14 01:59:36;;;;;;;43.30;25.90;;;;;;;4.74;88.85;99917.52;217239;1260;141066;-71
2024/03/14 02:04:47;;;;;;;46.50;27.70;;;;;;;4.54;87.95;99923.24;217310;1259;139234;-74
2024/03/14 02:09:51;;;;;;;46.30;30.50;;;;;;;4.27;88.21;99921.73;217571;1259;140097;-73
2024/03/14 02:14:56;;;;;;;46.80;28.90;;;;;;;4.20;88.78;99923.74;217255;1263;140766;-75
2024/03/14 02:20:01;;;;;;;44.40;27.40;;;;;;;4.10;88.86;99923.43;217184;1263;140715;-77
2024/03/14 02:25:06;;;;;;;64.80;36.70;;;;;;;4.04;89.31;99925.55;217473;1261;140016;-74
2024/03/14 02:30:11;;;;;;;48.80;32.50;;;;;;;4.02;89.25;99922.95;217499;1263;139556;-74
2024/03/14 02:35:17;;;;;;;49.60;30.70;;;;;;;4.00;89.27;99919.35;217316;1263;140217;-73
2024/03/14 02:40:22;;;;;;;43.50;27.90;;;;;;;3.96;89.09;99922.48;217832;1263;139955;-75
2024/03/14 02:45:27;;;;;;;48.50;30.90;;;;;;;3.91;89.18;99921.39;217233;1261;234442;-73
2024/03/14 02:50:31;;;;;;;47.80;31.60;;;;;;;3.90;89.22;99918.37;217248;1259;159886;-72
2024/03/14 02:55:37;;;;;;;47.50;29.30;;;;;;;3.83;89.38;99918.62;217154;1263;140295;-74
2024/03/14 03:00:42;;;;;;;40.70;28.50;;;;;;;3.75;89.21;99916.21;217534;1262;140227;-72
2024/03/14 03:05:59;;;;;;;57.10;33.80;;;;;;;3.65;89.59;99922.69;217150;1263;140212;-73
2024/03/14 03:11:06;;;;;;;56.80;31.30;;;;;;;3.61;89.77;99920.58;217407;1259;140617;-72
2024/03/14 03:16:15;;;;;;;48.30;30.70;;;;;;;3.50;89.26;99917.71;217349;1263;139805;-72
2024/03/14 03:21:20;;;;;;;43.70;28.30;;;;;;;3.45;89.61;99920.56;217523;1261;162968;-73
2024/03/14 03:26:26;;;;;;;42.60;26.50;;;;;;;3.34;89.04;99922.63;217452;1259;140355;-72
2024/03/14 03:31:32;;;;;;;38.40;24.90;;;;;;;3.21;88.94;99922.29;217414;1263;139678;-74
2024/03/14 03:36:37;;;;;;;49.60;27.60;;;;;;;3.13;89.22;99921.52;217486;1259;142012;-73
2024/03/14 03:41:41;;;;;;;48.90;27.70;;;;;;;3.03;88.95;99921.40;217533;1259;143251;-72
2024/03/14 03:46:46;;;;;;;44.30;28.70;;;;;;;3.00;89.24;99922.63;217449;1262;139714;-74
2024/03/14 03:51:49;;;;;;;46.10;29.60;;;;;;;3.00;89.63;99926.05;217525;1263;139869;-73
2024/03/14 03:56:54;;;;;;;40.20;27.90;;;;;;;2.98;89.82;99925.67;217706;1259;141174;-76
2024/03/14 04:01:58;;;;;;;41.00;24.60;;;;;;;2.92;89.37;99929.09;216961;1262;140398;-76
2024/03/14 04:07:03;;;;;;;46.80;29.40;;;;;;;2.85;89.15;99933.81;217463;1262;140036;-73
2024/03/14 04:12:07;;;;;;;45.40;25.80;;;;;;;2.81;89.46;99935.85;217060;1260;139765;-73
2024/03/14 04:17:16;;;;;;;36.10;22.70;;;;;;;2.78;89.49;99939.02;218016;1259;140882;-73
2024/03/14 04:22:20;;;;;;;44.40;25.40;;;;;;;2.65;89.26;99935.90;217991;1259;140438;-73
2024/03/14 04:27:24;;;;;;;45.20;26.20;;;;;;;2.58;89.44;99938.21;217974;1259;140118;-74
2024/03/14 04:32:29;;;;;;;42.30;25.90;;;;;;;2.57;89.80;99943.18;217184;1263;139504;-73
2024/03/14 04:37:36;;;;;;;41.50;23.30;;;;;;;2.60;90.00;99942.50;217175;1259;140441;-73
2024/03/14 04:42:41;;;;;;;43.00;24.10;;;;;;;2.55;89.81;99937.15;217271;1259;140765;-74
2024/03/14 04:47:45;;;;;;;44.90;25.10;;;;;;;2.51;90.19;99940.55;216903;1263;139960;-73
2024/03/14 04:52:51;;;;;;;49.60;27.40;;;;;;;2.51;90.38;99943.48;217194;1263;212139;-73
2024/03/14 04:57:58;;;;;;;50.00;26.00;;;;;;;2.52;90.50;99939.77;217048;1262;140668;-70
2024/03/14 05:03:04;;;;;;;44.50;31.10;;;;;;;2.50;90.31;99944.75;217547;1262;141370;-73
2024/03/14 05:08:10;;;;;;;44.20;25.70;;;;;;;2.47;90.30;99947.41;217213;1259;246884;-75
2024/03/14 05:13:14;;;;;;;38.30;23.80;;;;;;;2.44;89.95;99946.88;217303;1263;139803;-71
2024/03/14 05:18:19;;;;;;;46.60;29.30;;;;;;;2.36;90.04;99947.77;217896;1260;139293;-74
2024/03/14 05:23:24;;;;;;;42.40;23.60;;;;;;;2.37;90.51;99951.84;217077;1263;139719;-73
2024/03/14 05:28:29;;;;;;;58.40;30.10;;;;;;;2.43;90.37;99953.68;217167;1259;140478;-73
2024/03/14 05:33:35;;;;;;;47.00;28.90;;;;;;;2.54;90.91;99959.48;216863;1263;261598;-73
2024/03/14 05:38:41;;;;;;;38.90;25.40;;;;;;;2.71;91.03;99955.60;216947;1264;139797;-75
2024/03/14 05:43:47;;;;;;;39.00;25.90;;;;;;;2.83;91.07;99954.71;217256;1259;140215;-77
2024/03/14 05:48:51;;;;;;;53.80;30.60;;;;;;;2.92;91.27;99955.59;217299;1259;139587;-74
2024/03/14 05:53:59;;;;;;;53.10;31.90;;;;;;;3.17;92.13;99957.40;217950;1259;140814;-75
2024/03/14 05:59:04;;;;;;;46.30;28.00;;;;;;;3.49;92.47;99960.19;217834;1261;140695;-74
2024/03/14 06:04:09;;;;;;;42.90;22.10;;;;;;;3.78;92.62;99959.33;217060;1260;139766;-75
2024/03/14 06:09:15;;;;;;;44.10;24.20;;;;;;;4.00;92.78;99961.23;217080;1263;140651;-75
2024/03/14 06:14:20;;;;;;;43.40;27.10;;;;;;;4.24;93.27;99960.55;217169;1263;139966;-74
2024/03/14 06:19:24;;;;;;;44.20;26.90;;;;;;;4.48;93.39;99958.14;217769;1259;141151;-77
2024/03/14 06:24:29;;;;;;;38.90;22.80;;;;;;;4.78;93.94;99952.81;217327;1263;140900;-75
2024/03/14 06:29:33;;;;;;;46.60;28.80;;;;;;;5.16;94.01;99951.98;217529;1264;141663;-76
2024/03/14 06:34:37;;;;;;;44.40;26.90;;;;;;;5.54;94.27;99953.27;216878;1259;226122;-76
2024/03/14 06:39:41;;;;;;;44.80;26.50;;;;;;;5.95;94.23;99951.58;217090;1259;142403;-75
2024/03/14 06:44:47;;;;;;;42.20;25.70;;;;;;;6.36;94.16;99954.59;217057;1260;140055;-75
2024/03/14 06:49:51;;;;;;;42.50;27.70;;;;;;;6.75;94.19;99951.88;217732;1263;141414;-77
2024/03/14 06:54:55;;;;;;;49.50;29.90;;;;;;;7.14;93.81;99955.48;217491;1259;140657;-77
2024/03/14 07:00:09;;;;;;;44.10;27.20;;;;;;;7.59;94.30;99958.33;217255;1260;141731;-76
2024/03/14 07:05:15;;;;;;;50.10;26.00;;;;;;;8.09;93.38;99960.42;217163;1259;139802;-78
2024/03/14 07:10:21;;;;;;;38.20;26.00;;;;;;;8.40;92.29;99962.59;217277;1259;140325;-77
2024/03/14 07:15:25;;;;;;;36.40;21.50;;;;;;;8.48;91.29;99958.86;216987;1259;141569;-77
2024/03/14 07:20:34;;;;;;;34.40;22.90;;;;;;;8.50;90.71;99961.98;217176;1259;141407;-76
2024/03/14 07:25:38;;;;;;;42.90;26.40;;;;;;;8.54;90.21;99967.19;217585;1261;140977;-76
2024/03/14 07:30:44;;;;;;;37.80;24.90;;;;;;;8.63;89.93;99972.95;217282;1259;140527;-77
2024/03/14 07:35:49;;;;;;;43.00;26.40;;;;;;;8.70;89.79;99976.21;217062;1263;141023;-76
2024/03/14 07:40:55;;;;;;;44.20;25.50;;;;;;;8.83;89.97;99977.06;217693;1259;140294;-77
2024/03/14 07:46:00;;;;;;;42.30;28.00;;;;;;;9.05;90.07;99976.74;217446;1259;140420;-76
2024/03/14 07:51:10;;;;;;;39.70;26.50;;;;;;;9.30;90.05;99973.34;217072;1259;140742;-76
2024/03/14 07:56:17;;;;;;;39.10;22.30;;;;;;;9.69;90.49;99975.07;216975;1263;140761;-76
2024/03/14 08:01:22;;;;;;;32.70;22.90;;;;;;;10.41;91.09;99982.01;217847;1263;141370;-77
2024/03/14 08:06:31;;;;;;;47.80;28.20;;;;;;;10.95;89.50;99977.53;217448;1263;142014;-78
2024/03/14 08:11:35;;;;;;;47.40;28.70;;;;;;;11.39;89.13;99980.42;217134;1263;140305;-79
2024/03/14 08:16:41;;;;;;;39.10;25.20;;;;;;;11.78;88.78;99985.39;217119;1263;141222;-79
2024/03/14 08:21:47;;;;;;;45.80;28.70;;;;;;;12.01;87.38;99987.48;216949;1263;141255;-79
2024/03/14 08:26:54;;;;;;;46.70;27.20;;;;;;;12.28;87.21;99988.45;216931;1264;141069;-81
2024/03/14 08:31:59;;;;;;;32.60;22.60;;;;;;;12.53;86.82;99987.89;216992;1262;140373;-80
2024/03/14 08:37:06;;;;;;;43.20;27.60;;;;;;;12.61;85.10;99987.38;217916;1260;234779;-80
2024/03/14 08:42:11;;;;;;;43.60;26.60;;;;;;;12.66;84.99;99984.30;218574;1260;141004;-80
2024/03/14 08:47:16;;;;;;;47.20;27.90;;;;;;;12.68;83.45;99986.05;217302;1263;141573;-80
2024/03/14 08:52:26;;;;;;;51.00;27.60;;;;;;;12.79;83.70;99988.80;217384;1260;141297;-80
2024/03/14 08:57:33;;;;;;;35.90;25.90;;;;;;;13.02;83.63;99988.89;218430;1263;141036;-81
2024/03/14 09:02:37;;;;;;;39.30;26.70;;;;;;;13.15;82.95;99983.92;217090;1259;140626;-79
2024/03/14 09:07:42;;;;;;;49.40;28.60;;;;;;;13.31;82.72;99985.45;216947;1259;141771;-78
2024/03/14 09:12:48;;;;;;;35.60;24.10;;;;;;;13.45;82.53;99984.63;217604;1259;140695;-78
2024/03/14 09:17:53;;;;;;;31.90;20.20;;;;;;;13.64;81.80;99979.52;217205;1263;141527;-77
2024/03/14 09:22:59;;;;;;;35.60;21.60;;;;;;;13.56;79.86;99975.07;217253;1263;141071;-79
2024/03/14 09:28:03;;;;;;;38.00;23.00;;;;;;;13.61;79.94;99976.64;217142;1263;140898;-78
2024/03/14 09:33:13;;;;;;;39.00;22.80;;;;;;;13.79;79.37;99973.81;217178;1263;140681;-79
2024/03/14 09:38:17;;;;;;;31.60;21.20;;;;;;;13.96;79.04;99974.42;217519;1260;141238;-78
2024/03/14 09:43:21;;;;;;;30.30;18.60;;;;;;;14.15;78.58;99981.66;217453;1263;140478;-78
2024/03/14 09:48:31;;;;;;;33.90;20.70;;;;;;;14.41;78.11;99978.08;217232;1263;140503;-80
2024/03/14 09:53:37;;;;;;;28.60;20.30;;;;;;;14.66;77.49;99975.76;217254;1263;141835;-78
2024/03/14 09:58:42;;;;;;;25.90;17.00;;;;;;;14.73;76.41;99977.46;216870;1263;141133;-77
2024/03/14 10:03:46;;;;;;;26.20;16.10;;;;;;;14.81;75.27;99980.11;217286;1264;140444;-77
2024/03/14 10:08:51;;;;;;;26.60;16.60;;;;;;;15.01;74.95;99978.60;217436;1260;141661;-77
2024/03/14 10:14:25;;;;;;;17.30;12.70;;;;;;;15.21;74.14;99973.90;217779;1263;140454;-77
2024/03/14 10:19:30;;;;;;;19.30;12.10;;;;;;;15.29;71.48;99975.17;217486;1259;141204;-76
2024/03/14 10:24:35;;;;;;;18.30;12.90;;;;;;;14.71;69.55;99979.28;217512;1263;140901;-78
2024/03/14 10:29:39;;;;;;;19.30;11.70;;;;;;;14.39;69.67;99976.88;217573;1261;140443;-78
2024/03/14 10:34:45;;;;;;;13.40;8.90;;;;;;;14.06;68.84;99978.36;219806;1261;140457;-76
2024/03/14 10:39:54;;;;;;;15.60;10.50;;;;;;;13.92;69.07;99973.58;217347;1260;139715;-77
2024/03/14 10:44:59;;;;;;;13.40;10.20;;;;;;;13.82;67.88;99971.02;218162;1260;140392;-77
2024/03/14 10:50:16;;;;;;;9.70;7.50;;;;;;;13.66;67.60;99970.77;217336;1260;231417;-77
2024/03/14 10:55:23;;;;;;;13.80;9.00;;;;;;;13.64;67.35;99967.90;217095;1263;139546;-77
2024/03/14 11:00:29;;;;;;;13.80;8.60;;;;;;;13.65;67.45;99971.13;217200;1263;140776;-77
2024/03/14 11:05:39;;;;;;;13.10;8.20;;;;;;;13.60;66.90;99967.14;216909;1261;139408;-76
2024/03/14 11:10:46;;;;;;;14.50;9.50;;;;;;;13.46;66.62;99965.69;217021;1259;140595;-76
2024/03/14 11:15:54;;;;;;;16.40;10.40;;;;;;;13.39;66.76;99959.81;217259;1261;140271;-76
2024/03/14 11:21:03;;;;;;;21.00;11.60;;;;;;;13.32;66.73;99960.95;217276;1263;141169;-75
2024/03/14 11:26:14;;;;;;;17.10;10.10;;;;;;;13.31;66.82;99961.30;216962;1263;140474;-75
2024/03/14 11:31:20;;;;;;;15.40;9.10;;;;;;;13.27;66.73;99958.34;217161;1261;141732;-76
2024/03/14 11:36:29;;;;;;;13.20;10.50;;;;;;;13.15;66.51;99951.31;217097;1261;140483;-76
2024/03/14 11:41:40;;;;;;;13.10;9.20;;;;;;;13.06;66.13;99949.05;216901;1263;141005;-77
2024/03/14 11:46:48;;;;;;;16.70;9.90;;;;;;;13.02;66.31;99946.79;217356;1260;141757;-78
2024/03/14 11:51:55;;;;;;;16.00;11.00;;;;;;;13.01;66.37;99944.48;217218;1261;140037;-75
2024/03/14 11:57:00;;;;;;;16.00;10.20;;;;;;;13.01;66.34;99942.48;217213;1263;140199;-77
2024/03/14 12:02:09;;;;;;;16.70;10.90;;;;;;;12.96;65.90;99935.23;217342;1260;139904;-73
2024/03/14 12:07:23;;;;;;;15.40;9.20;;;;;;;12.82;65.56;99932.46;217200;1263;140513;-75
2024/03/14 12:12:32;;;;;;;18.50;12.00;;;;;;;12.78;65.77;99928.17;216980;1261;139190;-74
2024/03/14 12:17:36;;;;;;;20.90;11.70;;;;;;;12.90;65.85;99930.44;216815;1263;139534;-75
2024/03/14 12:22:46;;;;;;;18.60;10.30;;;;;;;13.01;65.65;99924.82;217000;1260;139974;-77
2024/03/14 12:27:55;;;;;;;14.30;10.80;;;;;;;13.04;65.11;99918.67;217676;1260;140687;-76
2024/03/14 12:33:01;;;;;;;17.90;11.80;;;;;;;13.07;65.18;99913.67;218975;1259;223509;-76
2024/03/14 12:38:06;;;;;;;10.00;7.20;;;;;;;13.17;65.13;99909.54;217685;1260;140783;-77
2024/03/14 12:43:10;;;;;;;15.60;9.80;;;;;;;13.28;64.34;99908.56;217117;1263;140357;-77
2024/03/14 12:48:17;;;;;;;15.80;9.30;;;;;;;13.39;63.98;99900.37;217297;1260;140199;-75
2024/03/14 12:53:24;;;;;;;11.70;7.00;;;;;;;13.64;63.67;99895.98;216919;1263;140312;-77
2024/03/14 12:58:30;;;;;;;13.00;7.70;;;;;;;13.97;61.85;99897.70;216977;1263;139901;-75
2024/03/14 13:03:37;;;;;;;10.80;7.80;;;;;;;14.17;61.05;99892.30;216870;1263;140548;-76
2024/03/14 13:08:42;;;;;;;11.10;8.00;;;;;;;14.12;59.88;99885.77;216700;1260;140430;-75
2024/03/14 13:13:49;;;;;;;11.60;8.30;;;;;;;13.96;59.42;99880.37;216887;1261;139357;-77
2024/03/14 13:18:55;;;;;;;12.00;8.10;;;;;;;13.80;58.98;99873.61;217132;1261;140351;-76
2024/03/14 13:24:16;;;;;;;14.50;6.80;;;;;;;13.77;59.07;99870.25;217477;1259;142173;-76
2024/03/14 13:29:22;;;;;;;9.80;7.40;;;;;;;13.70;58.48;99870.41;217135;1259;140636;-77
2024/03/14 13:34:33;;;;;;;12.70;7.60;;;;;;;13.68;58.87;99872.05;217144;1263;140336;-77
2024/03/14 13:39:38;;;;;;;9.50;7.50;;;;;;;13.80;58.20;99865.84;216893;1263;141146;-77
2024/03/14 13:44:42;;;;;;;10.60;7.30;;;;;;;13.79;57.79;99857.73;217046;1263;140778;-77
2024/03/14 13:49:50;;;;;;;10.50;6.40;;;;;;;13.86;58.10;99859.42;217612;1263;140623;-77
2024/03/14 13:54:57;;;;;;;11.80;7.90;;;;;;;13.63;57.49;99863.79;217214;1260;140960;-76
2024/03/14 14:00:10;;;;;;;10.10;7.90;;;;;;;13.39;57.54;99866.47;218041;1259;140771;-78
2024/03/14 14:05:20;;;;;;;15.70;8.00;;;;;;;13.31;58.08;99864.27;217638;1263;139838;-79
2024/03/14 14:10:28;;;;;;;12.30;7.90;;;;;;;13.17;58.11;99859.64;217907;1263;140654;-79
2024/03/14 14:15:35;;;;;;;12.90;7.00;;;;;;;12.96;58.19;99859.45;217639;1263;140182;-78
2024/03/14 14:20:44;;;;;;;10.60;8.20;;;;;;;12.77;58.35;99855.40;217558;1261;139808;-79
2024/03/14 14:25:58;;;;;;;17.50;7.50;;;;;;;12.60;58.55;99850.11;217327;1263;139791;-79
2024/03/14 14:31:19;;;;;;;10.50;8.20;;;;;;;12.48;58.61;99844.83;217596;1263;141101;-80
2024/03/14 14:36:25;;;;;;;13.10;8.60;;;;;;;12.39;58.54;99847.51;217756;1263;139701;-79
2024/03/14 14:41:30;;;;;;;12.40;8.20;;;;;;;12.36;58.46;99844.30;217748;1262;139704;-77
2024/03/14 14:46:35;;;;;;;11.70;7.90;;;;;;;12.42;58.69;99842.54;218045;1259;140015;-77
2024/03/14 14:51:39;;;;;;;11.00;7.80;;;;;;;12.54;59.08;99843.07;217368;1263;139780;-76
2024/03/14 14:56:44;;;;;;;15.90;8.40;;;;;;;12.58;59.31;99844.10;217382;1259;139985;-77
2024/03/14 15:01:48;;;;;;;11.70;8.20;;;;;;;12.57;58.92;99839.54;217437;1259;140247;-76
2024/03/14 15:06:53;;;;;;;11.70;7.90;;;;;;;12.53;59.07;99834.88;217676;1260;139496;-75
2024/03/14 15:11:57;;;;;;;11.40;7.60;;;;;;;12.45;59.14;99832.42;217300;1260;140582;-75
2024/03/14 15:17:03;;;;;;;8.30;6.60;;;;;;;12.35;58.90;99829.27;217282;1260;139313;-75
2024/03/14 15:22:08;;;;;;;11.70;7.10;;;;;;;12.26;59.32;99832.70;217336;1260;141020;-77
2024/03/14 15:27:13;;;;;;;11.80;8.30;;;;;;;12.15;59.54;99836.34;217151;1260;139714;-76
2024/03/14 15:32:20;;;;;;;12.40;8.00;;;;;;;12.12;59.82;99837.57;217820;1261;140273;-74
2024/03/14 15:37:25;;;;;;;11.40;7.60;;;;;;;12.09;59.79;99835.30;217222;1260;141618;-75
2024/03/14 15:42:30;;;;;;;12.20;8.50;;;;;;;12.05;59.73;99834.55;217404;1259;141107;-76
2024/03/14 15:47:35;;;;;;;13.70;9.80;;;;;;;12.01;60.04;99833.30;217356;1260;140607;-78
2024/03/14 15:52:40;;;;;;;15.60;11.00;;;;;;;11.94;60.04;99826.61;217206;1260;140127;-74
2024/03/14 15:57:47;;;;;;;14.30;10.20;;;;;;;11.80;60.13;99827.70;217681;1260;140647;-73
2024/03/14 16:02:55;;;;;;;14.30;11.10;;;;;;;11.61;60.30;99830.55;217372;1264;141028;-75
2024/03/14 16:08:00;;;;;;;16.60;10.90;;;;;;;11.36;60.79;99826.05;217313;1260;139501;-76
2024/03/14 16:13:06;;;;;;;20.50;12.50;;;;;;;11.12;61.14;99830.98;217159;1260;139928;-76
2024/03/14 16:18:11;;;;;;;15.50;12.50;;;;;;;10.94;61.50;99828.75;217547;1260;207374;-76
2024/03/14 16:23:19;;;;;;;15.90;12.70;;;;;;;10.75;61.69;99826.45;217452;1260;139923;-74
2024/03/14 16:28:26;;;;;;;20.10;12.20;;;;;;;10.55;62.24;99831.08;217588;1260;139822;-76
2024/03/14 16:33:31;;;;;;;22.00;12.70;;;;;;;10.38;62.92;99833.04;217419;1260;140868;-76
2024/03/14 16:38:37;;;;;;;16.60;9.80;;;;;;;10.25;63.71;99839.16;217087;1260;140357;-71
2024/03/14 16:43:42;;;;;;;;;;;;;;;10.07;63.94;99838.70;217213;1260;139839;-74
2024/03/14 16:48:46;;;;;;;18.00;11.30;;;;;;;9.78;64.55;99836.90;217759;1261;127008;-75
2024/03/14 16:53:51;;;;;;;14.70;10.70;;;;;;;9.52;64.61;99839.31;216894;1261;141516;-73
2024/03/14 16:58:55;;;;;;;17.30;11.80;;;;;;;9.34;65.46;99839.88;217971;1260;141111;-75
2024/03/14 17:04:00;;;;;;;17.90;12.70;;;;;;;9.16;65.92;99836.22;217709;1261;141175;-74
2024/03/14 17:09:07;;;;;;;18.60;11.40;;;;;;;8.96;66.21;99841.30;217937;1260;140154;-75
2024/03/14 17:14:12;;;;;;;24.70;13.60;;;;;;;8.69;66.35;99835.70;217463;1261;141646;-76
2024/03/14 17:19:17;;;;;;;29.50;18.10;;;;;;;8.37;66.57;99836.20;217254;1260;143231;-72
2024/03/14 17:24:22;;;;;;;31.20;19.70;;;;;;;8.16;67.12;99840.16;217493;1262;140469;-75
2024/03/14 17:29:28;;;;;;;30.80;19.40;;;;;;;7.90;67.40;99842.44;217717;1261;140938;-77
2024/03/14 17:34:36;;;;;;;26.30;16.80;;;;;;;7.75;68.21;99850.08;216305;1261;980306;-73
2024/03/14 17:39:41;;;;;;;26.90;16.30;;;;;;;7.66;68.60;99849.88;217380;1263;143473;-73
2024/03/14 17:44:45;;;;;;;32.40;19.90;;;;;;;7.57;68.94;99848.55;217265;1259;140081;-73
2024/03/14 17:49:53;;;;;;;34.90;21.10;;;;;;;7.43;68.92;99851.75;217469;1263;140334;-74
2024/03/14 17:54:57;;;;;;;45.00;24.40;;;;;;;7.19;68.91;99848.64;217261;1260;140384;-75
2024/03/14 18:00:01;;;;;;;63.40;32.00;;;;;;;7.04;69.59;99850.23;217551;1260;141676;-74
2024/03/14 18:05:08;;;;;;;56.10;27.50;;;;;;;6.89;69.83;99847.80;217536;1259;139916;-77
2024/03/14 18:10:13;;;;;;;60.00;32.20;;;;;;;6.72;69.84;99849.88;217450;1259;140465;-76
2024/03/14 18:15:21;;;;;;;56.60;27.90;;;;;;;6.61;70.71;99846.14;217720;1260;140353;-76
2024/03/14 18:20:26;;;;;;;47.90;25.30;;;;;;;6.56;70.72;99848.42;217198;1261;140240;-75
2024/03/14 18:25:37;;;;;;;57.20;26.80;;;;;;;6.50;70.98;99854.79;217698;1260;139630;-73
2024/03/14 18:30:43;;;;;;;51.20;26.50;;;;;;;6.36;70.99;99854.27;217613;1261;140043;-71
2024/03/14 18:35:47;;;;;;;50.20;25.00;;;;;;;6.34;71.44;99857.98;217271;1260;140161;-76
2024/03/14 18:40:51;;;;;;;44.60;24.40;;;;;;;6.30;71.62;99855.66;217281;1261;141192;-79
2024/03/14 18:45:55;;;;;;;44.30;24.00;;;;;;;6.22;71.96;99861.60;217379;1260;140826;-79
2024/03/14 18:51:00;;;;;;;48.40;25.90;;;;;;;6.14;72.27;99858.98;217509;1262;140477;-75
2024/03/14 18:56:05;;;;;;;47.50;24.20;;;;;;;6.06;72.12;99862.17;217509;1260;140965;-75
2024/03/14 19:01:11;;;;;;;44.00;25.00;;;;;;;5.97;72.51;99861.27;217288;1263;141367;-74
2024/03/14 19:06:19;;;;;;;52.80;24.60;;;;;;;5.77;72.68;99863.84;217051;1260;139739;-75
2024/03/14 19:11:23;;;;;;;52.60;25.70;;;;;;;5.63;72.77;99865.23;217294;1261;140276;-74
2024/03/14 19:16:28;;;;;;;50.70;27.00;;;;;;;5.60;73.20;99868.27;217256;1260;140710;-76
2024/03/14 19:21:36;;;;;;;43.00;25.30;;;;;;;5.57;73.72;99869.80;217218;1264;140317;-74
2024/03/14 19:26:40;;;;;;;39.20;23.60;;;;;;;5.47;73.05;99866.93;217309;1260;140475;-75
2024/03/14 19:31:45;;;;;;;42.40;22.40;;;;;;;5.38;73.89;99860.67;217287;1264;141920;-74
2024/03/14 19:36:49;;;;;;;45.10;25.70;;;;;;;5.36;74.20;99855.54;217472;1264;140033;-74
2024/03/14 19:41:53;;;;;;;55.00;30.20;;;;;;;5.38;74.52;99863.85;217060;1260;140410;-76
2024/03/14 19:47:00;;;;;;;51.30;26.80;;;;;;;5.40;74.65;99864.10;217301;1260;140009;-73
2024/03/14 19:52:05;;;;;;;48.30;25.70;;;;;;;5.39;74.65;99863.09;217392;1260;140464;-73
2024/03/14 19:57:09;;;;;;;34.60;20.40;;;;;;;5.37;75.28;99862.88;217592;1260;140070;-76
2024/03/14 20:02:15;;;;;;;46.20;25.30;;;;;;;5.33;75.38;99857.44;217323;1264;140153;-75
2024/03/14 20:07:21;;;;;;;57.40;29.30;;;;;;;5.35;75.51;99858.76;217211;1260;141148;-76
2024/03/14 20:12:25;;;;;;;55.70;26.10;;;;;;;5.37;75.67;99854.33;217384;1261;139558;-74
2024/03/14 20:17:29;;;;;;;45.20;24.80;;;;;;;5.40;75.94;99850.44;217333;1264;140310;-77
2024/03/14 20:22:34;;;;;;;58.80;28.50;;;;;;;5.41;76.31;99848.98;217214;1260;140483;-78
2024/03/14 20:27:39;;;;;;;53.60;28.90;;;;;;;5.43;76.65;99844.52;217291;1262;140379;-76
2024/03/14 20:32:45;;;;;;;54.80;27.80;;;;;;;5.42;76.67;99842.36;217477;1263;140453;-73
2024/03/14 20:37:50;;;;;;;49.60;27.90;;;;;;;5.37;76.52;99838.38;217406;1260;140401;-73
2024/03/14 20:42:57;;;;;;;61.70;30.30;;;;;;;5.29;76.56;99836.48;217159;1259;140047;-74
2024/03/14 20:48:02;;;;;;;61.40;28.70;;;;;;;5.22;77.07;99838.28;217536;1259;140765;-73
2024/03/14 20:53:08;;;;;;;51.80;26.70;;;;;;;5.19;76.91;99840.31;217272;1262;139863;-76
2024/03/14 20:58:19;;;;;;;61.00;28.60;;;;;;;5.17;77.63;99838.04;217211;1259;140571;-74
2024/03/14 21:03:23;;;;;;;50.30;26.40;;;;;;;5.14;77.64;99843.88;217259;1260;140680;-73
2024/03/14 21:08:27;;;;;;;47.10;26.20;;;;;;;5.12;78.17;99843.86;217238;1263;140710;-74
2024/03/14 21:13:32;;;;;;;55.50;28.40;;;;;;;5.10;78.10;99844.66;216983;1264;140421;-76
2024/03/14 21:18:36;;;;;;;52.50;29.10;;;;;;;5.07;78.30;99843.39;217656;1263;139949;-73
2024/03/14 21:23:42;;;;;;;57.10;30.40;;;;;;;5.03;78.23;99841.26;217324;1260;142221;-72
2024/03/14 21:28:50;;;;;;;65.00;32.50;;;;;;;4.96;78.26;99840.52;217063;1264;140335;-73
2024/03/14 21:33:55;;;;;;;45.70;27.40;;;;;;;4.91;78.60;99838.63;217108;1263;140047;-74
2024/03/14 21:39:02;;;;;;;64.10;28.70;;;;;;;4.83;78.86;99834.79;217668;1261;140931;-73
2024/03/14 21:44:09;;;;;;;49.20;27.20;;;;;;;4.77;78.91;99829.34;218254;1261;139283;-73
2024/03/14 21:49:14;;;;;;;54.00;29.70;;;;;;;4.67;79.17;99831.55;217327;1262;139851;-72
2024/03/14 21:54:19;;;;;;;53.10;29.70;;;;;;;4.56;79.24;99834.61;217465;1263;140167;-73
2024/03/14 21:59:23;;;;;;;46.40;25.30;;;;;;;4.45;79.33;99830.20;217183;1263;140218;-74
2024/03/14 22:04:28;;;;;;;45.10;26.10;;;;;;;4.40;79.58;99840.64;217369;1262;139895;-74
2024/03/14 22:09:32;;;;;;;41.50;26.10;;;;;;;4.37;79.97;99840.48;217215;1259;140029;-74
2024/03/14 22:14:36;;;;;;;53.60;28.60;;;;;;;4.32;80.27;99842.75;217100;1262;139960;-75
2024/03/14 22:19:41;;;;;;;49.60;26.80;;;;;;;4.25;80.41;99839.35;217214;1260;139802;-76
2024/03/14 22:24:45;;;;;;;54.70;26.30;;;;;;;4.17;80.42;99833.23;217292;1262;141011;-75
2024/03/14 22:29:50;;;;;;;50.60;28.70;;;;;;;4.10;80.52;99833.73;217797;1259;141373;-76
2024/03/14 22:34:57;;;;;;;62.10;31.80;;;;;;;4.01;80.78;99833.55;217379;1259;140462;-73
2024/03/14 22:40:04;;;;;;;56.10;29.00;;;;;;;3.94;81.14;99826.59;217249;1263;139945;-73
2024/03/14 22:45:09;;;;;;;49.50;23.80;;;;;;;3.87;81.26;99826.61;217264;1263;139920;-76
2024/03/14 22:50:13;;;;;;;51.00;28.90;;;;;;;3.79;81.67;99829.29;217256;1259;140710;-75
2024/03/14 22:55:18;;;;;;;51.80;27.80;;;;;;;3.76;81.98;99829.52;217198;1262;141194;-75
2024/03/14 23:00:36;;;;;;;43.30;24.10;;;;;;;3.75;82.23;99827.86;217457;1262;140398;-74
2024/03/14 23:05:44;;;;;;;45.70;24.50;;;;;;;3.71;82.26;99826.00;217637;1259;140879;-75
2024/03/14 23:10:49;;;;;;;47.50;26.10;;;;;;;3.67;82.51;99825.72;217336;1260;220119;-73